Flood From: 21-02-2018 18:00 Until: 22-02-2018 16:00 warning for: Flood Level: Yellow info button

Although rather usual in this region, locally or potentially dangerous phenomena are expected. (such as local winds, summer thunderstorms, rising streams or high waves) Be aware and pay attention to the latest weather updates, especially if you carry out activities exposed to weather or close to a stream or shoreline. 


Meteo18 Weather Cam more information Meteo18 Weather Cam


Thunder radar more information blitzortung!


Rain radar more information rain snow radar


Visit our other weather sites:

Template documentation
and downloads

And another site



Weather Underground History page Text

Daily Summary for September 21, 2017 Units:  Metric    English   Both
« Previous Day
Next Day »
Daily Weekly Monthly Yearly Custom
  High: Low: Average:
Temperature: -17.8 °C -14.1 °C -10.4 °C
Dew Point: -17.8 °C -14.4 °C -13.1 °C
Humidity: Humidity % 39 % 76 %
Wind Speed: 0 km/h 0 km/h 1.4 km/h
Wind Gust: 0 km/h - -
Wind:- - SSE
Pressure: 0 hPa 34462.7 hPa -
Precipitation: 7.62 mm    
Historical Graphs
 
 
Tabular Data for September 21, 2017
Time Temperature Dew Point Pressure Wind Wind Speed Wind Gust Humidity Rainfall Rate (Hourly)
-17.8 °C -17.8 °C 0 hPa Calm     Humidity % 0 mm
00:02 -13 °C -13.7 °C 34591.4 hPa Calm     92 % 0 mm
00:12 -13.1 °C -13.7 °C 34591.4 hPa Calm     93 % 0 mm
00:17 -13.1 °C -13.7 °C 34591.4 hPa Calm     93 % 0 mm
00:22 -13.2 °C -13.8 °C 34591.4 hPa Calm     93 % 0 mm
00:27 -13.2 °C -13.8 °C 34591.4 hPa Calm     93 % 0 mm
00:32 -13.2 °C -13.8 °C 34591.4 hPa Calm     93 % 0 mm
00:37 -13.1 °C -13.7 °C 34591.4 hPa Calm     93 % 0 mm
00:42 -13.2 °C -13.8 °C 34591.4 hPa Calm     92 % 0 mm
00:52 -13.2 °C -13.8 °C 34591.4 hPa Calm     93 % 0 mm
00:57 -13.2 °C -13.8 °C 34591.4 hPa Calm     93 % 0 mm
01:02 -13.2 °C -13.8 °C 34591.4 hPa Calm     93 % 0 mm
01:12 -13.2 °C -13.8 °C 34591.4 hPa Calm     93 % 0 mm
01:17 -13.2 °C -13.8 °C 34577.8 hPa Calm     93 % 0 mm
01:22 -13.2 °C -13.8 °C 34577.8 hPa Calm     93 % 0 mm
01:32 -13.3 °C -13.9 °C 34577.8 hPa Calm     93 % 0 mm
01:37 -13.3 °C -13.9 °C 34577.8 hPa Calm     93 % 0 mm
01:42 -13.4 °C -14 °C 34577.8 hPa Calm     93 % 0 mm
01:47 -13.4 °C -14 °C 34577.8 hPa Calm     93 % 0 mm
01:52 -13.4 °C -14 °C 34577.8 hPa Calm     93 % 0 mm
01:57 -13.4 °C -14 °C 34577.8 hPa Calm     93 % 0 mm
02:02 -13.4 °C -13.9 °C 34577.8 hPa Calm     94 % 0 mm
02:07 -13.3 °C -13.8 °C 34577.8 hPa Calm     94 % 0 mm
02:12 -13.3 °C -13.9 °C 34577.8 hPa Calm     93 % 0 mm
02:17 -13.4 °C -14.1 °C 34577.8 hPa Calm     93 % 0 mm
02:22 -13.5 °C -14.1 °C 34577.8 hPa Calm     93 % 0 mm
02:32 -13.5 °C -14 °C 34577.8 hPa Calm     94 % 0 mm
02:42 -13.6 °C -14.2 °C 34577.8 hPa Calm     93 % 0 mm
02:47 -13.7 °C -14.2 °C 34577.8 hPa Calm     94 % 0 mm
02:52 -13.7 °C -14.2 °C 34577.8 hPa Calm     94 % 0 mm
03:02 -13.7 °C -14.2 °C 34567.7 hPa Calm     94 % 0 mm
03:12 -13.6 °C -14 °C 34567.7 hPa Calm     95 % 0 mm
03:22 -13.6 °C -13.9 °C 34567.7 hPa Calm     95 % 0 mm
03:32 -13.6 °C -13.9 °C 34567.7 hPa Calm     95 % 0 mm
03:42 -13.4 °C -13.9 °C 34567.7 hPa Calm     95 % 0 mm
03:52 -13.7 °C -14.2 °C 34567.7 hPa Calm     94 % 0 mm
03:57 -13.8 °C -14.2 °C 34567.7 hPa Calm     95 % 0 mm
04:02 -13.8 °C -14.2 °C 34567.7 hPa Calm     95 % 0 mm
04:12 -13.7 °C -14.1 °C 34554.1 hPa Calm     95 % 0 mm
04:17 -13.7 °C -14.1 °C 34554.1 hPa Calm     95 % 0 mm
04:22 -13.7 °C -14.1 °C 34554.1 hPa Calm     95 % 0 mm
04:27 -13.8 °C -14.2 °C 34554.1 hPa Calm     95 % 0 mm
04:32 -13.8 °C -14.2 °C 34554.1 hPa Calm     95 % 0 mm
04:42 -13.9 °C -14.3 °C 34554.1 hPa Calm     95 % 0 mm
04:52 -13.9 °C -14.3 °C 34554.1 hPa Calm     95 % 0 mm
05:02 -13.8 °C -14.1 °C 34544 hPa Calm     96 % 0 mm
05:12 -13.8 °C -14.2 °C 34544 hPa Calm     95 % 0 mm
05:22 -13.9 °C -14.3 °C 34544 hPa Calm     95 % 0 mm
05:32 -14 °C -14.4 °C 34544 hPa Calm     95 % 0 mm
05:42 -14 °C -14.4 °C 34544 hPa Calm     95 % 0 mm
05:52 -13.8 °C -14.2 °C 34544 hPa Calm     96 % 0 mm
05:57 -13.8 °C -14.1 °C 34533.8 hPa Calm     96 % 0 mm
06:02 -13.8 °C -14.2 °C 34533.8 hPa Calm     95 % 0 mm
06:12 -13.8 °C -14.2 °C 34533.8 hPa Calm     96 % 7.62 mm
06:17 -13.8 °C -14.2 °C 34533.8 hPa Calm     96 % 7.62 mm
06:22 -13.8 °C -14.2 °C 34533.8 hPa Calm     95 % 7.62 mm
06:32 -13.8 °C -14.2 °C 34533.8 hPa Calm     95 % 7.62 mm
06:42 -13.8 °C -14.2 °C 34533.8 hPa Calm     96 % 7.62 mm
06:52 -13.9 °C -14.3 °C 34533.8 hPa Calm     95 % 7.62 mm
06:57 -14 °C -14.4 °C 34533.8 hPa Calm     95 % 7.62 mm
07:02 -14 °C -14.4 °C 34533.8 hPa Calm     95 % 7.62 mm
07:12 -14 °C -14.4 °C 34533.8 hPa Calm     95 % 0 mm
07:17 -14 °C -14.3 °C 34533.8 hPa Calm     96 % 0 mm
07:22 -14 °C -14.4 °C 34533.8 hPa Calm     95 % 0 mm
07:27 -13.9 °C -14.3 °C 34533.8 hPa Calm     96 % 0 mm
07:32 -14 °C -14.4 °C 34533.8 hPa Calm     95 % 0 mm
07:42 -14.1 °C -14.4 °C 34533.8 hPa Calm     95 % 0 mm
07:52 -14.1 °C -14.4 °C 34533.8 hPa Calm     95 % 0 mm
08:02 -13.9 °C -14.3 °C 34533.8 hPa Calm     95 % 0 mm
08:12 -13.9 °C -14.3 °C 34533.8 hPa Calm     95 % 0 mm
08:17 -13.9 °C -14.3 °C 34533.8 hPa Calm     95 % 0 mm
08:22 -13.8 °C -14.2 °C 34533.8 hPa Calm     95 % 0 mm
08:32 -13.7 °C -14.1 °C 34544 hPa Calm     95 % 0 mm
08:42 -13.4 °C -13.9 °C 34544 hPa Calm     95 % 0 mm
08:52 -13.1 °C -13.6 °C 34544 hPa Calm     95 % 0 mm
08:57 -12.9 °C -13.4 °C 34544 hPa Calm     95 % 0 mm
09:02 -12.8 °C -13.3 °C 34544 hPa Calm     95 % 0 mm
09:12 -12.5 °C -13 °C 34544 hPa Calm     94 % 0 mm
09:17 -12.4 °C -13.1 °C 34544 hPa Calm     93 % 0 mm
09:22 -12.3 °C -13.1 °C 34544 hPa Calm     91 % 0 mm
09:32 -12.1 °C -13 °C 34533.8 hPa Calm     89 % 0 mm
09:42 -11.8 °C -12.8 °C 34533.8 hPa SE 5.1 km/h   88 % 0 mm
09:47 -11.7 °C -12.8 °C 34533.8 hPa Calm   10.3 km/h 87 % 0 mm
09:52 -11.5 °C -12.7 °C 34544 hPa SE 2.6 km/h 10.3 km/h 87 % 0 mm
10:02 -11.3 °C -12.7 °C 34544 hPa Calm   10.3 km/h 85 % 0 mm
10:12 -11.1 °C -12.5 °C 34544 hPa Calm   12.9 km/h 84 % 0 mm
10:17 -10.9 °C -12.6 °C 34544 hPa Calm   10.3 km/h 82 % 0 mm
10:22 -10.9 °C -12.7 °C 34544 hPa Calm   10.3 km/h 81 % 0 mm
10:32 -10.7 °C -12.3 °C 34544 hPa ESE 2.6 km/h 15.6 km/h 83 % 0 mm
10:42 -10.3 °C -12.1 °C 34533.8 hPa ENE 2.6 km/h 10.3 km/h 81 % 0 mm
10:52 -10.1 °C -12 °C 34533.8 hPa East 5.1 km/h 12.9 km/h 80 % 0 mm
11:02 -9.9 °C -12.1 °C 34533.8 hPa SW 2.6 km/h 10.3 km/h 77 % 0 mm
11:12 -9.7 °C -11.9 °C 34533.8 hPa ESE 2.6 km/h 18.2 km/h 77 % 0 mm
11:22 -9.4 °C -11.9 °C 34533.8 hPa East 5.1 km/h 15.6 km/h 74 % 0 mm
11:32 -9.2 °C -11.9 °C 34533.8 hPa South 2.6 km/h 15.6 km/h 73 % 0 mm
11:37 -9.1 °C -11.8 °C 34533.8 hPa ESE 2.6 km/h 12.9 km/h 73 % 0 mm
11:42 -9 °C -11.7 °C 34533.8 hPa ESE 2.6 km/h 12.9 km/h 73 % 0 mm
11:52 -8.7 °C -11.8 °C 34533.8 hPa East 5.1 km/h 15.6 km/h 69 % 0 mm
12:02 -8.6 °C -12 °C 34533.8 hPa SE 7.7 km/h 15.6 km/h 67 % 0 mm
12:12 -8.2 °C -12.1 °C 34533.8 hPa SW 5.1 km/h 20.8 km/h 64 % 0 mm
12:17 -8.1 °C -11.9 °C 34520.3 hPa SE 10.3 km/h 18.2 km/h 64 % 0 mm
12:22 -7.9 °C -12.1 °C 34520.3 hPa East 2.6 km/h 18.2 km/h 62 % 0 mm
12:32 -7.8 °C -12.2 °C 34520.3 hPa Calm   15.6 km/h 60 % 0 mm
12:42 -7.7 °C -12.5 °C 34520.3 hPa ESE 7.7 km/h 18.2 km/h 57 % 0 mm
12:52 -7.7 °C -12.5 °C 34520.3 hPa ESE 5.1 km/h 20.8 km/h 57 % 0 mm
12:57 -7.6 °C -12.6 °C 34520.3 hPa NE 5.1 km/h 23.3 km/h 56 % 0 mm
13:02 -7.7 °C -12.8 °C 34520.3 hPa SE 7.7 km/h 23.3 km/h 55 % 0 mm
13:12 -7.7 °C -12.6 °C 34520.3 hPa SE 2.6 km/h 23.3 km/h 57 % 0 mm
13:17 -7.5 °C -12.2 °C 34510.1 hPa ENE 5.1 km/h 20.8 km/h 58 % 0 mm
13:22 -7.4 °C -12.4 °C 34510.1 hPa Calm   20.8 km/h 56 % 0 mm
13:32 -7.2 °C -12.2 °C 34510.1 hPa South 2.6 km/h 20.8 km/h 56 % 0 mm
13:42 -7.1 °C -12.4 °C 34510.1 hPa Calm   18.2 km/h 54 % 0 mm
13:52 -7.1 °C -12.7 °C 34510.1 hPa SSW 10.3 km/h 18.2 km/h 52 % 0 mm
13:57 -7.1 °C -12.4 °C 34510.1 hPa SE 12.9 km/h 25.9 km/h 54 % 0 mm
14:02 -7.4 °C -12.7 °C 34496.6 hPa ESE 2.6 km/h 25.9 km/h 54 % 0 mm
14:12 -7.4 °C -12.8 °C 34496.6 hPa ESE 10.3 km/h 20.8 km/h 53 % 0 mm
14:17 -7.3 °C -12.1 °C 34496.6 hPa SE 7.7 km/h 18.2 km/h 57 % 0 mm
14:22 -7 °C -12.2 °C 34496.6 hPa SSW 2.6 km/h 18.2 km/h 55 % 0 mm
14:32 -6.9 °C -12.5 °C 34496.6 hPa WSW 7.7 km/h 15.6 km/h 52 % 0 mm
14:37 -6.9 °C -12.3 °C 34496.6 hPa East 2.6 km/h 18.2 km/h 53 % 0 mm
14:42 -6.8 °C -12.3 °C 34496.6 hPa SSE 7.7 km/h 18.2 km/h 53 % 0 mm
14:52 -6.8 °C -12.6 °C 34486.4 hPa Calm   18.2 km/h 51 % 0 mm
14:57 -6.6 °C -12.1 °C 34486.4 hPa ESE 2.6 km/h 20.8 km/h 53 % 0 mm
15:02 -6.6 °C -12.1 °C 34486.4 hPa Calm   20.8 km/h 53 % 0 mm
15:12 -6.6 °C -12.2 °C 34486.4 hPa SE 10.3 km/h 15.6 km/h 52 % 0 mm
15:17 -6.6 °C -12.2 °C 34486.4 hPa SE 5.1 km/h 15.6 km/h 52 % 0 mm
15:22 -6.4 °C -12.1 °C 34486.4 hPa SSW 15.6 km/h 15.6 km/h 52 % 0 mm
15:27 -6.4 °C -12.9 °C 34486.4 hPa SSE 5.1 km/h 20.8 km/h 47 % 0 mm
15:32 -6.5 °C -13 °C 34486.4 hPa SSW 5.1 km/h 20.8 km/h 47 % 0 mm
15:42 -6.3 °C -12.8 °C 34486.4 hPa WSW 5.1 km/h 15.6 km/h 47 % 0 mm
15:52 -6.2 °C -12.9 °C 34486.4 hPa Calm   15.6 km/h 46 % 0 mm
16:02 -6.3 °C -13.2 °C 34476.3 hPa South 2.6 km/h 12.9 km/h 45 % 0 mm
16:12 -6 °C -12.7 °C 34476.3 hPa ESE 2.6 km/h 18.2 km/h 46 % 0 mm
16:17 -6.1 °C -12.8 °C 34476.3 hPa Calm   12.9 km/h 46 % 0 mm
16:22 -6.2 °C -12.6 °C 34476.3 hPa Calm   12.9 km/h 48 % 0 mm
16:32 -6.2 °C -12.4 °C 34476.3 hPa SSE 5.1 km/h 12.9 km/h 49 % 0 mm
16:42 -6.1 °C -12.6 °C 34476.3 hPa SW 7.7 km/h 15.6 km/h 47 % 0 mm
16:47 -6.1 °C -12.4 °C 34462.7 hPa Calm   12.9 km/h 48 % 0 mm
16:52 -5.9 °C -12.3 °C 34462.7 hPa SW 7.7 km/h 12.9 km/h 48 % 0 mm
16:57 -5.9 °C -12.5 °C 34462.7 hPa Calm   18.2 km/h 47 % 0 mm
17:02 -5.9 °C -12.6 °C 34462.7 hPa South 5.1 km/h 18.2 km/h 46 % 0 mm
17:12 -5.9 °C -12.6 °C 34462.7 hPa Calm   15.6 km/h 46 % 0 mm
17:17 -5.9 °C -12.8 °C 34462.7 hPa South 5.1 km/h 7.7 km/h 45 % 0 mm
17:22 -5.7 °C -12.8 °C 34462.7 hPa SE 2.6 km/h 7.7 km/h 44 % 0 mm
17:32 -5.7 °C -12.8 °C 34462.7 hPa Calm   10.3 km/h 44 % 0 mm
17:42 -5.6 °C -12.9 °C 34462.7 hPa South 5.1 km/h 7.7 km/h 43 % 0 mm
17:52 -5.7 °C -13 °C 34462.7 hPa ESE 2.6 km/h 18.2 km/h 43 % 0 mm
17:57 -5.7 °C -12.4 °C 34462.7 hPa Calm   18.2 km/h 46 % 0 mm
18:02 -5.6 °C -12.3 °C 34462.7 hPa Calm   18.2 km/h 46 % 0 mm
18:07 -5.7 °C -13.3 °C 34476.3 hPa SSW 2.6 km/h 10.3 km/h 41 % 0 mm
18:12 -5.6 °C -12.7 °C 34476.3 hPa Calm   10.3 km/h 44 % 0 mm
18:17 -5.7 °C -13.8 °C 34476.3 hPa SSW 7.7 km/h 7.7 km/h 39 % 0 mm
18:22 -5.9 °C -13.6 °C 34476.3 hPa SW 2.6 km/h 10.3 km/h 41 % 0 mm
18:32 -6 °C -13.7 °C 34476.3 hPa WSW 7.7 km/h 15.6 km/h 41 % 0 mm
18:37 -6.1 °C -13.5 °C 34476.3 hPa SW 7.7 km/h 15.6 km/h 42 % 0 mm
18:42 -6.1 °C -13.5 °C 34476.3 hPa SW 2.6 km/h 12.9 km/h 42 % 0 mm
18:47 -6.1 °C -13.3 °C 34486.4 hPa Calm   10.3 km/h 43 % 0 mm
18:52 -6.1 °C -13.1 °C 34476.3 hPa Calm   10.3 km/h 44 % 0 mm
18:57 -6 °C -12.9 °C 34476.3 hPa West 2.6 km/h 7.7 km/h 45 % 0 mm
19:02 -6 °C -12.9 °C 34486.4 hPa Calm   7.7 km/h 45 % 0 mm
19:12 -6.2 °C -12.2 °C 34486.4 hPa Calm   5.1 km/h 50 % 0 mm
19:17 -6.6 °C -11.8 °C 34486.4 hPa Calm   2.6 km/h 55 % 0 mm
19:22 -7 °C -12 °C 34486.4 hPa Calm   2.6 km/h 56 % 0 mm
19:32 -7.6 °C -11.9 °C 34486.4 hPa Calm   2.6 km/h 61 % 0 mm
19:42 -7.9 °C -11.9 °C 34486.4 hPa Calm     63 % 0 mm
19:52 -8.1 °C -12.2 °C 34496.6 hPa Calm     62 % 0 mm
19:57 -8.2 °C -12.3 °C 34496.6 hPa Calm     62 % 0 mm
20:02 -8.4 °C -12.3 °C 34496.6 hPa Calm     63 % 0 mm
20:12 -8.7 °C -12.4 °C 34496.6 hPa Calm     65 % 0 mm
20:17 -8.8 °C -12.1 °C 34496.6 hPa Calm     68 % 0 mm
20:22 -8.9 °C -12.4 °C 34496.6 hPa Calm     66 % 0 mm
20:32 -9 °C -11.9 °C 34510.1 hPa Calm     71 % 0 mm
20:42 -9.3 °C -11.8 °C 34510.1 hPa Calm     74 % 0 mm
20:47 -9.3 °C -11.8 °C 34510.1 hPa Calm     75 % 0 mm
20:57 -9.4 °C -11.7 °C 34510.1 hPa Calm     76 % 0 mm
21:07 -9.8 °C -11.9 °C 34520.3 hPa Calm     78 % 0 mm
21:12 -10 °C -11.8 °C 34520.3 hPa WNW 5.1 km/h   81 % 0 mm
21:17 -10.2 °C -11.8 °C 34520.3 hPa Calm   5.1 km/h 82 % 0 mm
21:27 -10.3 °C -11.8 °C 34520.3 hPa Calm   5.1 km/h 83 % 0 mm
21:32 -10.3 °C -11.9 °C 34520.3 hPa WNW 2.6 km/h 5.1 km/h 83 % 0 mm
21:37 -10.4 °C -12 °C 34520.3 hPa Calm   2.6 km/h 83 % 0 mm
21:42 -10.4 °C -12 °C 34520.3 hPa Calm   2.6 km/h 83 % 0 mm
21:47 -10.5 °C -12.1 °C 34520.3 hPa Calm   2.6 km/h 83 % 0 mm
21:57 -10.7 °C -12.1 °C 34533.8 hPa Calm   2.6 km/h 84 % 0 mm
22:02 -10.7 °C -12.1 °C 34520.3 hPa Calm   2.6 km/h 85 % 0 mm
22:12 -10.7 °C -12.1 °C 34520.3 hPa Calm   2.6 km/h 85 % 0 mm
22:22 -10.8 °C -12.2 °C 34533.8 hPa Calm   2.6 km/h 85 % 0 mm
22:32 -10.9 °C -12.3 °C 34533.8 hPa Calm   2.6 km/h 85 % 0 mm
22:37 -11 °C -12.3 °C 34533.8 hPa Calm   2.6 km/h 86 % 0 mm
22:47 -11.1 °C -12.1 °C 34533.8 hPa Calm   2.6 km/h 88 % 0 mm
22:52 -11 °C -12.2 °C 34533.8 hPa Calm   2.6 km/h 87 % 0 mm
22:57 -11.1 °C -12.2 °C 34533.8 hPa Calm   2.6 km/h 87 % 0 mm
23:02 -11.2 °C -12.3 °C 34533.8 hPa Calm   2.6 km/h 87 % 0 mm
23:12 -11.4 °C -12.4 °C 34533.8 hPa Calm     88 % 0 mm
23:17 -11.4 °C -12.4 °C 34533.8 hPa Calm     89 % 0 mm
23:22 -11.4 °C -12.4 °C 34533.8 hPa Calm     89 % 0 mm
23:32 -11.4 °C -12.4 °C 34533.8 hPa Calm     89 % 0 mm
23:42 -11.6 °C -12.5 °C 34533.8 hPa Calm     89 % 0 mm
23:47 -11.6 °C -12.4 °C 34533.8 hPa Calm     90 % 0 mm
23:52 -11.6 °C -12.4 °C 34533.8 hPa Calm     90 % 0 mm
Meteo18
Compliments of Weather Underground - 4 mb

Script developed by  Jim McMurry - jmcmurry@mwt.net Adapted for the template by  Wim van der Kuil - Leuven-Template.eu

You find our weather info also at:

European Weather Network

Weather Underground

Equipment we use:

Weather-station
Davis Vue

Weather-program
Meteobridge

Weather-server
Raspberry PI 2 B+

Provider
1 and 1

Davis Vue

Meteobridge

Raspberry PI 2 B+

1 and 1